Time;durP1;ratioP1;P1;durP2;ratioP2;P2;SDS_P1;SDS_P2;PMS_P1;PMS_P2;Temp;Humidity;BMP_temperature;BMP_pressure;BME280_temperature;BME280_humidity;BME280_pressure;Samples;Min_cycle;Max_cycle;Signal;HPM_P1;HPM_P2
2022/08/03 00:01:32;;;;;;;3.17;1.00;;;;;;;21.20;63.89;100224.97;5073781;28;20032;-85
2022/08/03 00:03:57;;;;;;;2.35;1.13;;;;;;;21.16;64.32;100224.19;5073811;28;20373;-86
2022/08/03 00:06:23;;;;;;;2.05;0.90;;;;;;;21.16;64.68;100223.38;5073921;28;20024;-85
2022/08/03 00:08:48;;;;;;;2.83;1.08;;;;;;;21.14;64.87;100223.81;5073832;28;20032;-86
2022/08/03 00:11:13;;;;;;;3.40;1.10;;;;;;;21.12;65.00;100223.41;5073722;28;20427;-85
2022/08/03 00:13:38;;;;;;;3.03;1.13;;;;;;;21.59;63.66;100218.41;5073881;28;20051;-86
2022/08/03 00:16:04;;;;;;;4.78;1.00;;;;;;;21.69;63.35;100222.31;5073218;28;20589;-85
2022/08/03 00:18:30;;;;;;;1.98;0.90;;;;;;;21.87;62.77;100212.66;5073422;28;20029;-85
2022/08/03 00:20:55;;;;;;;4.78;0.98;;;;;;;21.82;63.29;100215.84;5073371;28;20021;-85
2022/08/03 00:23:20;;;;;;;2.55;0.90;;;;;;;21.67;64.09;100217.19;5073308;28;20479;-84
2022/08/03 00:25:46;;;;;;;2.50;1.10;;;;;;;21.50;64.67;100220.84;5073569;28;20024;-83
2022/08/03 00:28:11;;;;;;;2.17;0.98;;;;;;;21.36;65.50;100213.44;5073854;28;20440;-84
2022/08/03 00:30:36;;;;;;;3.95;1.10;;;;;;;21.13;66.11;100213.13;5073226;28;20056;-86
2022/08/03 00:33:02;;;;;;;3.10;1.15;;;;;;;20.75;67.74;100207.38;5073216;28;20032;-85
2022/08/03 00:35:28;;;;;;;2.63;1.00;;;;;;;20.73;67.90;100202.25;5078399;28;20067;-85
2022/08/03 00:37:53;;;;;;;2.67;0.90;;;;;;;20.59;68.64;100207.03;5084754;28;20141;-85
2022/08/03 00:40:19;;;;;;;3.30;1.13;;;;;;;20.41;69.25;100205.13;5084098;28;20029;-86
2022/08/03 00:42:50;;;;;;;3.00;1.20;;;;;;;20.39;69.07;100207.47;5073849;28;20032;-85
2022/08/03 00:45:17;;;;;;;3.35;1.10;;;;;;;20.41;69.21;100207.09;5073421;28;20027;-86
2022/08/03 00:47:43;;;;;;;2.58;1.00;;;;;;;20.44;69.05;100200.75;5074681;28;20040;-86
2022/08/03 00:50:09;;;;;;;3.28;1.13;;;;;;;20.45;68.89;100201.53;5073618;28;20032;-86
2022/08/03 00:52:34;;;;;;;3.08;0.95;;;;;;;20.61;68.01;100194.38;5072895;28;20165;-86
2022/08/03 00:55:00;;;;;;;2.30;1.30;;;;;;;21.11;66.47;100194.16;5073300;28;20424;-85
2022/08/03 00:57:27;;;;;;;3.17;1.27;;;;;;;21.09;66.93;100191.00;5072702;28;20110;-84
2022/08/03 00:59:53;;;;;;;4.00;1.48;;;;;;;20.92;67.80;100191.88;5054958;28;20078;-85
2022/08/03 01:02:18;;;;;;;3.15;1.20;;;;;;;20.62;69.27;100195.97;5073580;28;20037;-86
2022/08/03 01:04:44;;;;;;;3.60;1.40;;;;;;;20.32;70.31;100193.66;5073074;28;20036;-86
2022/08/03 01:07:29;;;;;;;3.75;1.30;;;;;;;20.27;70.08;100193.28;5072984;28;20052;-86
2022/08/03 01:10:07;;;;;;;2.88;1.25;;;;;;;20.25;70.01;100201.19;5073320;28;20036;-86
2022/08/03 01:13:03;;;;;;;2.47;1.02;;;;;;;20.30;69.64;100195.22;5074432;28;20037;-86
2022/08/03 01:15:48;;;;;;;3.00;1.20;;;;;;;20.25;70.03;100190.13;5076918;28;20177;-86
2022/08/03 01:18:19;;;;;;;2.80;1.20;;;;;;;20.32;70.01;100187.31;5077249;28;20037;-87
2022/08/03 01:20:54;;;;;;;3.53;1.23;;;;;;;20.45;69.81;100190.50;5077033;28;20032;-87
2022/08/03 01:23:47;;;;;;;3.65;1.20;;;;;;;20.82;68.29;100182.44;5076454;28;20119;-86
2022/08/03 01:26:41;;;;;;;3.95;1.15;;;;;;;20.42;69.76;100192.06;5078505;28;20032;-86
2022/08/03 01:29:19;;;;;;;3.97;1.13;;;;;;;20.21;70.19;100189.34;5071041;28;20071;-85
2022/08/03 01:31:52;;;;;;;2.67;1.17;;;;;;;20.14;70.58;100188.16;5078999;28;20486;-86
2022/08/03 01:34:19;;;;;;;3.72;1.02;;;;;;;20.11;70.33;100191.72;5078641;28;20421;-86
2022/08/03 01:36:51;;;;;;;3.20;1.15;;;;;;;20.09;70.61;100185.00;5079062;28;20076;-86
2022/08/03 01:39:19;;;;;;;2.40;1.00;;;;;;;20.37;69.78;100181.41;5077538;28;20454;-86
2022/08/03 01:41:58;;;;;;;4.60;1.67;;;;;;;20.41;69.34;100180.22;5076937;28;20406;-86
2022/08/03 01:44:26;;;;;;;2.15;1.00;;;;;;;20.24;70.34;100185.78;5076899;28;20029;-86
2022/08/03 01:46:52;;;;;;;6.72;1.42;;;;;;;20.12;70.76;100178.69;5076838;28;20433;-86
2022/08/03 01:49:18;;;;;;;3.95;1.30;;;;;;;20.09;70.59;100185.78;5076384;28;20154;-86
2022/08/03 01:51:46;;;;;;;3.58;1.40;;;;;;;20.12;69.93;100184.22;5076409;28;20111;-87
2022/08/03 01:54:13;;;;;;;3.60;1.58;;;;;;;20.20;68.97;100177.50;5075771;28;20041;-87
2022/08/03 01:56:41;;;;;;;4.53;1.55;;;;;;;20.33;67.97;100175.09;5076192;28;20032;-86
2022/08/03 01:59:09;;;;;;;3.30;1.20;;;;;;;20.48;67.41;100176.63;5076196;28;20254;-87
2022/08/03 02:01:36;;;;;;;3.50;1.20;;;;;;;20.55;66.86;100167.56;5075702;28;20093;-85
2022/08/03 02:04:03;;;;;;;3.53;1.38;;;;;;;20.67;66.35;100167.91;5075514;28;20062;-87
2022/08/03 02:06:32;;;;;;;2.80;1.20;;;;;;;20.80;65.37;100168.22;5075726;28;20033;-87
2022/08/03 02:08:59;;;;;;;3.47;1.30;;;;;;;20.89;64.93;100165.81;5075933;28;20070;-87
2022/08/03 02:11:25;;;;;;;4.25;1.10;;;;;;;20.94;64.83;100161.81;5075764;28;20032;-86
2022/08/03 02:13:52;;;;;;;4.63;1.30;;;;;;;21.00;64.38;100163.00;5057638;28;20383;-86
2022/08/03 02:16:18;;;;;;;3.30;1.25;;;;;;;21.05;64.16;100164.53;5075560;28;20467;-87
2022/08/03 02:18:45;;;;;;;6.03;1.35;;;;;;;21.08;64.16;100172.81;5075178;28;20042;-87
2022/08/03 02:21:12;;;;;;;3.72;1.23;;;;;;;21.07;64.07;100174.03;5075381;28;20510;-87
2022/08/03 02:23:39;;;;;;;4.25;1.17;;;;;;;21.12;63.79;100172.78;5075195;28;20039;-86
2022/08/03 02:26:08;;;;;;;2.88;1.15;;;;;;;21.11;63.62;100172.00;5075588;28;20032;-86
2022/08/03 02:28:36;;;;;;;3.72;1.38;;;;;;;21.10;63.65;100169.66;5076080;28;20020;-86
2022/08/03 02:31:10;;;;;;;7.57;1.45;;;;;;;21.12;63.60;100172.78;5081765;28;20101;-87
2022/08/03 02:33:40;;;;;;;2.60;1.10;;;;;;;21.09;63.59;100168.84;5085608;28;20035;-86
2022/08/03 02:36:07;;;;;;;3.60;1.40;;;;;;;21.11;63.34;100162.91;5083650;28;20032;-85
2022/08/03 02:38:35;;;;;;;3.15;1.20;;;;;;;21.11;63.28;100166.47;5084212;28;20032;-87
2022/08/03 02:41:06;;;;;;;4.43;1.30;;;;;;;21.11;63.55;100171.22;5085600;28;20036;-87
2022/08/03 02:43:33;;;;;;;3.25;1.20;;;;;;;21.10;63.22;100170.44;5080706;28;20035;-87
2022/08/03 02:45:59;;;;;;;2.85;1.17;;;;;;;21.08;63.22;100163.72;5076595;28;20021;-87
2022/08/03 02:48:27;;;;;;;3.35;1.45;;;;;;;21.07;63.35;100165.72;5075931;28;20415;-87
2022/08/03 02:50:55;;;;;;;5.82;2.03;;;;;;;21.08;63.30;100163.72;5075656;28;20131;-87
2022/08/03 02:53:22;;;;;;;4.78;1.38;;;;;;;21.07;63.22;100160.19;5074724;28;20476;-87
2022/08/03 02:55:49;;;;;;;3.70;1.38;;;;;;;21.06;63.44;100163.34;5074695;28;20460;-86
2022/08/03 02:58:20;;;;;;;4.32;1.40;;;;;;;21.05;63.40;100170.88;5074892;28;20396;-87
2022/08/03 03:00:46;;;;;;;3.50;1.30;;;;;;;21.03;63.40;100170.50;5074761;28;20115;-86
2022/08/03 03:03:12;;;;;;;3.35;1.58;;;;;;;21.01;63.64;100167.34;5075048;28;20020;-86
2022/08/03 03:05:40;;;;;;;2.92;1.38;;;;;;;21.00;63.80;100166.56;5076171;28;20033;-87
2022/08/03 03:08:05;;;;;;;3.85;1.92;;;;;;;20.98;63.78;100165.34;5074836;28;20028;-87
2022/08/03 03:10:31;;;;;;;3.20;1.42;;;;;;;20.97;63.66;100167.34;5075414;28;20433;-88
2022/08/03 03:12:59;;;;;;;3.85;1.60;;;;;;;20.96;63.75;100162.22;5075807;28;20467;-89
2022/08/03 03:15:26;;;;;;;3.28;1.50;;;;;;;20.98;63.60;100166.16;5075182;28;20093;-87
2022/08/03 03:17:52;;;;;;;4.40;1.70;;;;;;;20.94;63.83;100168.16;5074649;28;20031;-87
2022/08/03 03:20:20;;;;;;;5.85;1.50;;;;;;;20.91;63.98;100162.63;5074361;28;20032;-88
2022/08/03 03:22:48;;;;;;;5.70;1.60;;;;;;;20.89;63.99;100165.81;5074131;28;20464;-88
2022/08/03 03:25:14;;;;;;;3.70;1.48;;;;;;;20.86;64.06;100168.59;5074520;28;20025;-88
2022/08/03 03:27:40;;;;;;;3.50;1.70;;;;;;;20.83;64.17;100163.88;5074016;28;20452;-88
2022/08/03 03:30:06;;;;;;;5.70;2.17;;;;;;;20.79;64.22;100166.66;5073936;28;20025;-86
2022/08/03 03:32:31;;;;;;;4.90;1.80;;;;;;;20.79;64.18;100166.66;5074129;28;20120;-83
2022/08/03 03:34:58;;;;;;;9.35;1.88;;;;;;;20.80;64.07;100157.16;5076976;28;20486;-88
2022/08/03 03:37:25;;;;;;;4.40;1.60;;;;;;;20.82;63.98;100163.06;5079423;28;20044;-88
2022/08/03 03:39:53;;;;;;;3.97;1.83;;;;;;;20.83;63.80;100163.88;5081933;28;20038;-86
2022/08/03 03:42:18;;;;;;;4.93;1.67;;;;;;;20.84;63.85;100162.69;5083462;28;20032;-89
2022/08/03 03:44:44;;;;;;;5.85;1.80;;;;;;;20.85;63.84;100164.25;5082297;28;20161;-82
2022/08/03 03:47:09;;;;;;;6.22;1.60;;;;;;;20.83;64.00;100164.66;5073713;28;20033;-88
2022/08/03 03:49:38;;;;;;;6.95;2.08;;;;;;;20.81;64.16;100169.00;5056608;28;20032;-85
2022/08/03 03:52:04;;;;;;;3.38;1.48;;;;;;;20.80;64.25;100162.69;5056553;28;20029;-85
2022/08/03 03:54:44;;;;;;;4.63;1.80;;;;;;;20.76;64.23;100172.19;5075817;28;20043;-87
2022/08/03 03:57:10;;;;;;;6.85;2.10;;;;;;;20.75;64.32;100167.84;5077628;28;20110;-85
2022/08/03 03:59:40;;;;;;;6.18;1.92;;;;;;;20.75;64.59;100159.56;5074748;28;20076;-86
2022/08/03 04:02:07;;;;;;;7.53;1.85;;;;;;;20.75;64.44;100159.56;5083501;28;20035;-87
2022/08/03 04:12:57;;;;;;;6.10;1.75;;;;;;;20.77;64.20;100173.78;5090165;28;20052;-89
2022/08/03 04:15:30;;;;;;;4.43;1.65;;;;;;;20.71;65.03;100170.66;5089226;28;20117;-88
2022/08/03 04:17:58;;;;;;;6.30;2.22;;;;;;;20.71;64.80;100168.66;5087159;28;20032;-87
2022/08/03 04:20:29;;;;;;;6.45;1.70;;;;;;;20.69;64.94;100168.28;5094188;28;20047;-87
2022/08/03 04:22:56;;;;;;;6.90;2.03;;;;;;;20.67;65.10;100178.19;5094314;28;20103;-88
2022/08/03 04:25:27;;;;;;;3.75;1.67;;;;;;;20.65;65.21;100167.50;5220444;22;20012;-83
2022/08/03 04:27:57;;;;;;;5.30;1.63;;;;;;;20.63;65.28;100169.88;5156052;22;20044;-88
2022/08/03 04:30:25;;;;;;;5.18;1.98;;;;;;;20.61;65.56;100172.25;5095577;28;20040;-86
2022/08/03 04:32:51;;;;;;;5.53;1.65;;;;;;;20.57;65.48;100165.16;5091880;28;20020;-89
2022/08/03 04:35:18;;;;;;;5.30;2.10;;;;;;;20.56;65.79;100166.34;5095693;28;20032;-85
2022/08/03 04:37:48;;;;;;;4.38;1.90;;;;;;;20.53;66.09;100169.94;5268399;22;20076;-87
2022/08/03 04:40:20;;;;;;;5.05;2.05;;;;;;;20.53;65.99;100181.00;5092255;28;20467;-88
2022/08/03 04:42:48;;;;;;;4.35;1.80;;;;;;;20.52;65.99;100177.44;5366634;22;20120;-87
2022/08/03 04:45:15;;;;;;;4.88;1.80;;;;;;;20.52;65.96;100166.38;5220845;22;20482;-88
2022/08/03 04:47:41;;;;;;;7.32;1.92;;;;;;;20.53;65.99;100179.00;5128585;28;20085;-90
2022/08/03 04:50:08;;;;;;;6.78;2.00;;;;;;;20.52;66.17;100180.22;5127960;28;20047;-87
2022/08/03 04:52:35;;;;;;;6.00;2.20;;;;;;;20.53;66.15;100173.47;5115682;28;20028;-90
2022/08/03 04:55:00;;;;;;;3.80;1.55;;;;;;;20.58;65.76;100175.81;5115635;28;20054;-87
2022/08/03 04:57:29;;;;;;;5.32;1.98;;;;;;;20.57;66.07;100174.25;5134341;27;20043;-88
2022/08/03 04:59:55;;;;;;;4.95;1.63;;;;;;;20.56;66.08;100178.22;5128447;28;20031;-90
2022/08/03 05:02:21;;;;;;;4.82;1.90;;;;;;;20.57;66.28;100174.25;5106609;28;20031;-90
2022/08/03 05:04:47;;;;;;;4.25;1.85;;;;;;;20.58;66.00;100178.59;5128574;27;20062;-90
2022/08/03 05:07:13;;;;;;;3.88;1.90;;;;;;;20.62;66.14;100184.91;5130138;28;20031;-91
2022/08/03 05:09:42;;;;;;;5.80;2.20;;;;;;;20.64;66.06;100171.44;5134503;27;20061;-89
2022/08/03 05:12:08;;;;;;;4.53;1.92;;;;;;;20.70;65.68;100174.59;5115654;28;20045;-88
2022/08/03 05:14:36;;;;;;;5.50;2.30;;;;;;;20.71;65.79;100176.97;5248064;22;20039;-88
2022/08/03 05:17:04;;;;;;;5.80;2.63;;;;;;;20.70;65.89;100185.66;5513759;22;20032;-88
2022/08/03 05:19:29;;;;;;;5.80;2.00;;;;;;;20.77;65.61;100182.88;5477951;22;20063;-87
2022/08/03 05:21:55;;;;;;;5.55;2.22;;;;;;;20.85;65.51;100184.41;5220289;22;20044;-86
2022/08/03 05:24:20;;;;;;;4.40;1.92;;;;;;;20.88;65.31;100189.16;5279958;22;20047;-87
2022/08/03 05:26:45;;;;;;;6.95;2.28;;;;;;;20.90;65.21;100188.75;5140297;27;20091;-89
2022/08/03 05:29:11;;;;;;;5.80;1.95;;;;;;;20.91;65.38;100191.09;5309669;22;20106;-86
2022/08/03 05:34:11;;;;;;;8.02;2.65;;;;;;;20.97;65.28;100185.94;5318327;22;20036;-89
2022/08/03 05:36:37;;;;;;;8.18;2.28;;;;;;;20.99;65.33;100195.41;5096046;28;20056;-86
2022/08/03 05:39:02;;;;;;;4.00;2.00;;;;;;;21.08;64.97;100188.66;5092885;28;20020;-88
2022/08/03 05:41:27;;;;;;;5.00;2.33;;;;;;;21.08;65.18;100192.19;5085825;28;20093;-89
2022/08/03 05:43:54;;;;;;;6.95;2.10;;;;;;;21.11;65.09;100188.63;5084764;28;20017;-87
2022/08/03 05:46:21;;;;;;;3.85;1.88;;;;;;;21.14;65.05;100187.03;5090881;28;20031;-88
2022/08/03 05:48:47;;;;;;;4.80;2.10;;;;;;;21.14;64.99;100190.56;5083022;28;20037;-86
2022/08/03 05:51:12;;;;;;;4.70;2.35;;;;;;;21.22;64.77;100194.91;5061601;28;20059;-89
2022/08/03 05:53:39;;;;;;;5.47;2.33;;;;;;;21.27;64.48;100200.03;5078083;28;20055;-87
2022/08/03 05:56:04;;;;;;;4.40;1.77;;;;;;;21.25;65.04;100194.09;5085193;28;20108;-87
2022/08/03 05:58:36;;;;;;;4.55;2.10;;;;;;;21.39;64.52;100203.53;5083531;28;20075;-85
2022/08/03 06:01:01;;;;;;;6.65;2.42;;;;;;;21.40;64.28;100194.03;5085426;28;20367;-89
2022/08/03 06:03:26;;;;;;;4.97;2.20;;;;;;;21.46;64.14;100198.72;5083353;28;20032;-85
2022/08/03 06:05:53;;;;;;;4.65;2.28;;;;;;;21.49;64.19;100197.91;5076484;28;20093;-87
2022/08/03 06:08:19;;;;;;;5.28;2.17;;;;;;;21.52;64.22;100199.88;5057489;28;20497;-86
2022/08/03 06:10:44;;;;;;;4.63;2.25;;;;;;;21.54;64.16;100191.16;5075855;28;20041;-85
2022/08/03 06:13:10;;;;;;;4.65;2.05;;;;;;;21.62;64.09;100195.44;5075803;28;20055;-86
2022/08/03 06:15:35;;;;;;;4.65;2.10;;;;;;;21.67;63.98;100192.25;5075384;28;20490;-86
2022/08/03 06:18:00;;;;;;;4.93;2.30;;;;;;;21.73;63.85;100198.91;5075577;28;20391;-86
2022/08/03 06:20:26;;;;;;;4.32;2.00;;;;;;;21.81;63.70;100199.63;5057862;28;20047;-86
2022/08/03 06:22:51;;;;;;;4.78;2.20;;;;;;;21.88;63.50;100202.34;5075817;28;20039;-86
2022/08/03 06:25:18;;;;;;;6.13;2.25;;;;;;;21.96;63.52;100200.31;5075099;28;20112;-85
2022/08/03 06:27:43;;;;;;;5.38;2.08;;;;;;;22.02;63.28;100201.44;5075681;28;20036;-86
2022/08/03 06:30:11;;;;;;;8.75;2.13;;;;;;;22.09;63.23;100199.41;5075827;28;20024;-85
2022/08/03 06:32:37;;;;;;;4.07;1.80;;;;;;;22.22;62.74;100196.91;5075958;28;20162;-87
2022/08/03 06:35:03;;;;;;;4.20;1.85;;;;;;;22.61;61.79;100201.25;5076171;28;20048;-85
2022/08/03 06:37:29;;;;;;;3.85;1.65;;;;;;;23.27;60.24;100200.81;5081662;28;20024;-85
2022/08/03 06:39:54;;;;;;;5.40;1.73;;;;;;;24.08;57.36;100203.53;5085517;28;20402;-87
2022/08/03 06:42:20;;;;;;;4.97;2.03;;;;;;;24.50;56.04;100190.81;5057965;28;20033;-88
2022/08/03 06:44:46;;;;;;;4.07;1.60;;;;;;;25.10;54.27;100203.53;5076169;28;20095;-87
2022/08/03 06:47:11;;;;;;;3.03;1.23;;;;;;;25.21;53.89;100206.09;5057817;28;20035;-86
2022/08/03 06:49:37;;;;;;;8.73;1.55;;;;;;;25.54;52.99;100198.56;5058168;28;20063;-86
2022/08/03 06:52:03;;;;;;;4.55;1.50;;;;;;;25.76;52.35;100198.84;5077319;28;20036;-89
2022/08/03 06:54:29;;;;;;;4.18;1.70;;;;;;;25.66;52.70;100192.25;5085154;28;20048;-86
2022/08/03 06:56:54;;;;;;;3.38;1.40;;;;;;;25.85;52.63;100198.19;5092736;28;20036;-90
2022/08/03 06:59:19;;;;;;;4.63;1.77;;;;;;;26.64;49.91;100195.69;5084842;28;20032;-89
2022/08/03 07:01:45;;;;;;;3.83;1.73;;;;;;;26.93;48.77;100194.88;5084053;28;20090;-86
2022/08/03 07:04:10;;;;;;;5.65;2.10;;;;;;;26.08;52.12;100195.22;5076067;28;20032;-84
2022/08/03 07:06:37;;;;;;;4.15;1.60;;;;;;;26.24;51.49;100200.78;5075879;28;20033;-89
2022/08/03 07:09:02;;;;;;;4.38;1.83;;;;;;;26.11;52.16;100199.94;5074867;28;20464;-87
2022/08/03 07:11:28;;;;;;;4.70;1.58;;;;;;;26.06;52.84;100206.03;5057071;28;20081;-86
2022/08/03 07:13:53;;;;;;;4.47;1.55;;;;;;;26.04;52.61;100206.50;5075555;28;20134;-87
2022/08/03 07:16:18;;;;;;;3.97;1.58;;;;;;;26.24;51.40;100205.56;5074675;28;20039;-84
2022/08/03 07:18:44;;;;;;;3.60;1.50;;;;;;;26.16;51.73;100204.19;5057340;28;20062;-85
2022/08/03 07:21:11;;;;;;;3.78;1.30;;;;;;;25.91;52.54;100211.19;5076245;28;20372;-86
2022/08/03 07:23:37;;;;;;;3.28;1.23;;;;;;;26.00;52.10;100214.16;5056823;28;20028;-86
2022/08/03 07:26:02;;;;;;;4.60;1.73;;;;;;;25.72;53.73;100214.88;5056982;28;20034;-87
2022/08/03 07:28:28;;;;;;;3.78;1.40;;;;;;;25.53;54.21;100205.34;5074240;28;20028;-83
2022/08/03 07:30:53;;;;;;;3.33;1.08;;;;;;;25.36;54.60;100218.47;5074034;28;20024;-84
2022/08/03 07:33:19;;;;;;;3.42;1.60;;;;;;;25.31;54.59;100221.75;5073844;28;20029;-85
2022/08/03 07:35:44;;;;;;;11.35;1.65;;;;;;;25.11;54.99;100226.59;5073830;28;20070;-83
2022/08/03 07:38:09;;;;;;;3.00;1.40;;;;;;;25.13;55.44;100222.16;5073713;28;20042;-85
2022/08/03 07:40:34;;;;;;;2.72;1.15;;;;;;;24.97;55.93;100219.28;5073220;28;20032;-84
2022/08/03 07:43:02;;;;;;;3.53;1.60;;;;;;;25.15;55.45;100224.50;5073439;28;20509;-82
2022/08/03 07:45:28;;;;;;;4.20;1.23;;;;;;;25.39;54.93;100217.59;5057854;28;20029;-83
2022/08/03 07:47:54;;;;;;;2.67;1.05;;;;;;;25.30;54.88;100219.41;5074044;28;20035;-83
2022/08/03 07:50:20;;;;;;;4.53;1.20;;;;;;;25.45;54.75;100213.06;5072927;28;20111;-83
2022/08/03 07:52:49;;;;;;;2.85;1.02;;;;;;;25.42;54.62;100215.94;5072947;28;20024;-83
2022/08/03 07:55:20;;;;;;;4.03;1.45;;;;;;;25.32;54.67;100217.75;5074923;28;20067;-81
2022/08/03 07:57:47;;;;;;;2.70;1.10;;;;;;;25.38;54.77;100218.03;5073478;28;20077;-83
2022/08/03 08:00:16;;;;;;;3.45;1.38;;;;;;;25.38;54.81;100220.84;5073215;28;20029;-84
2022/08/03 08:02:42;;;;;;;2.65;1.20;;;;;;;25.47;54.06;100219.00;5073289;28;20135;-83
2022/08/03 08:05:09;;;;;;;3.47;1.23;;;;;;;25.44;53.85;100214.28;5072829;28;20036;-82
2022/08/03 08:07:35;;;;;;;2.83;1.25;;;;;;;25.48;54.09;100209.41;5073484;28;20032;-84
2022/08/03 08:10:01;;;;;;;3.65;1.35;;;;;;;25.50;53.66;100212.53;5073450;28;20182;-84
2022/08/03 08:12:27;;;;;;;7.45;1.40;;;;;;;25.71;53.20;100218.88;5073895;28;20107;-83
2022/08/03 08:14:52;;;;;;;2.80;1.15;;;;;;;25.62;53.36;100216.66;5073658;28;20037;-82
2022/08/03 08:17:18;;;;;;;3.67;1.17;;;;;;;25.69;53.47;100216.50;5072871;28;20387;-85
2022/08/03 08:19:44;;;;;;;6.28;1.73;;;;;;;25.97;52.10;100212.22;5072766;28;20078;-84
2022/08/03 08:22:09;;;;;;;4.53;1.10;;;;;;;25.99;51.84;100220.94;5072750;28;20033;-85
2022/08/03 08:24:34;;;;;;;2.95;1.05;;;;;;;26.01;51.84;100215.72;5073053;28;20052;-84
2022/08/03 08:27:00;;;;;;;4.05;1.55;;;;;;;26.02;51.32;100220.06;5072728;28;20369;-84
2022/08/03 08:29:25;;;;;;;2.70;1.20;;;;;;;25.97;51.41;100219.81;5072925;28;20032;-85
2022/08/03 08:31:51;;;;;;;1.95;0.80;;;;;;;26.30;50.67;100217.75;5072983;28;20033;-84
2022/08/03 08:34:16;;;;;;;2.80;1.10;;;;;;;26.26;51.31;100214.28;5073317;28;20403;-84
2022/08/03 08:36:41;;;;;;;3.28;1.10;;;;;;;26.29;51.23;100221.78;5072905;28;20529;-85
2022/08/03 08:39:07;;;;;;;2.20;0.93;;;;;;;26.32;50.31;100213.31;5054968;28;20029;-85
2022/08/03 08:41:33;;;;;;;2.45;0.98;;;;;;;26.30;49.80;100218.53;5072406;28;20029;-84
2022/08/03 08:43:59;;;;;;;2.63;1.00;;;;;;;26.12;50.95;100217.44;5072221;28;20064;-83
2022/08/03 08:46:25;;;;;;;2.30;0.90;;;;;;;26.15;51.13;100222.94;5072921;28;20456;-85
2022/08/03 08:48:52;;;;;;;3.25;1.15;;;;;;;26.31;50.37;100219.31;5073193;28;20041;-85
2022/08/03 08:51:20;;;;;;;2.20;0.93;;;;;;;26.40;50.53;100219.53;5072735;28;20099;-85
2022/08/03 08:53:50;;;;;;;2.80;1.00;;;;;;;26.22;50.24;100213.59;5072463;28;20024;-83
2022/08/03 08:56:16;;;;;;;1.80;0.90;;;;;;;26.36;49.87;100218.81;5073721;28;20464;-86
2022/08/03 08:58:53;;;;;;;2.58;0.90;;;;;;;26.54;49.56;100216.34;5054711;28;20040;-83
2022/08/03 09:01:19;;;;;;;2.70;1.30;;;;;;;26.58;49.66;100216.25;5072816;28;20559;-84
2022/08/03 09:03:45;;;;;;;7.97;2.25;;;;;;;26.58;49.64;100219.81;5072494;28;20031;-83
2022/08/03 09:06:11;;;;;;;3.53;1.10;;;;;;;26.85;49.16;100219.44;5072485;28;20115;-83
2022/08/03 09:08:36;;;;;;;4.70;1.85;;;;;;;26.97;48.70;100215.09;5078038;28;20042;-84
2022/08/03 09:11:02;;;;;;;3.80;1.25;;;;;;;27.00;48.62;100214.22;5081584;28;20028;-84
2022/08/03 09:13:28;;;;;;;3.22;1.00;;;;;;;27.25;48.26;100207.91;5075848;28;20033;-84
2022/08/03 09:16:13;;;;;;;5.78;1.50;;;;;;;27.19;47.06;100218.06;5072469;28;20032;-81
2022/08/03 09:18:43;;;;;;;3.23;0.97;;;;;;;27.24;46.84;100209.91;5072339;28;20028;-83
2022/08/03 09:21:22;;;;;;;3.20;0.93;;;;;;;27.03;46.84;100218.94;5072586;28;20273;-84
2022/08/03 09:23:50;;;;;;;2.90;1.10;;;;;;;27.08;45.73;100212.81;5072050;28;20028;-82
2022/08/03 09:26:20;;;;;;;2.45;1.00;;;;;;;27.22;46.12;100212.38;5054646;28;20087;-83
2022/08/03 09:28:46;;;;;;;2.70;1.00;;;;;;;27.17;46.58;100218.50;5072360;28;20032;-83
2022/08/03 09:31:12;;;;;;;3.25;1.40;;;;;;;27.17;46.62;100224.09;5054263;28;20041;-83
2022/08/03 09:33:47;;;;;;;3.33;1.27;;;;;;;27.27;46.18;100220.19;5072835;28;20060;-83
2022/08/03 09:36:45;;;;;;;4.10;1.20;;;;;;;27.55;46.45;100217.75;5075629;28;20074;-83
2022/08/03 09:39:13;;;;;;;3.00;1.20;;;;;;;27.59;45.96;100215.63;5058079;28;20040;-83
2022/08/03 09:41:41;;;;;;;3.72;1.40;;;;;;;27.73;46.12;100220.78;5075946;28;20384;-83
2022/08/03 09:44:07;;;;;;;3.25;1.00;;;;;;;27.63;45.84;100210.72;5075433;28;20028;-82
2022/08/03 09:46:50;;;;;;;4.00;1.30;;;;;;;27.58;46.12;100214.06;5075486;28;20059;-83
2022/08/03 09:49:16;;;;;;;4.18;1.25;;;;;;;27.62;46.68;100213.94;5076437;28;20032;-83
2022/08/03 09:51:42;;;;;;;3.38;1.38;;;;;;;27.66;46.30;100221.00;5059831;28;20454;-84
2022/08/03 09:54:07;;;;;;;2.35;0.90;;;;;;;27.65;45.00;100219.44;5077799;28;20032;-82
2022/08/03 09:56:59;;;;;;;3.15;0.95;;;;;;;27.85;45.03;100219.97;5077772;28;20036;-84
2022/08/03 09:59:27;;;;;;;4.93;1.00;;;;;;;27.97;44.52;100223.19;5074235;28;20480;-83
2022/08/03 10:01:54;;;;;;;3.35;1.00;;;;;;;27.97;44.23;100221.19;5076213;28;20052;-82
2022/08/03 10:04:21;;;;;;;4.03;1.05;;;;;;;27.94;44.07;100224.09;5075152;28;20123;-82
2022/08/03 10:07:05;;;;;;;5.10;1.23;;;;;;;27.87;44.66;100214.69;5075358;28;20031;-84
2022/08/03 10:09:31;;;;;;;2.83;1.05;;;;;;;27.97;45.54;100209.97;5075404;28;20025;-83
2022/08/03 10:12:05;;;;;;;9.77;1.10;;;;;;;27.91;44.95;100211.00;5075103;28;20028;-83
2022/08/03 10:14:31;;;;;;;3.47;0.90;;;;;;;27.97;44.08;100212.00;5075165;28;20032;-83
2022/08/03 10:16:56;;;;;;;2.28;1.05;;;;;;;28.03;43.65;100216.56;5075016;28;20036;-83
2022/08/03 10:19:22;;;;;;;4.00;1.05;;;;;;;27.85;44.76;100211.56;5074788;28;20029;-83
2022/08/03 10:21:55;;;;;;;3.22;1.00;;;;;;;28.13;44.48;100206.25;5075014;28;20066;-83
2022/08/03 10:24:25;;;;;;;5.38;1.33;;;;;;;28.23;44.48;100212.72;5074418;28;20029;-83
2022/08/03 10:26:58;;;;;;;2.33;0.88;;;;;;;28.27;44.63;100210.59;5074629;28;20116;-83
2022/08/03 10:29:27;;;;;;;4.65;1.70;;;;;;;28.34;44.21;100216.72;5074817;28;20024;-82
2022/08/03 10:31:57;;;;;;;2.60;1.25;;;;;;;28.14;44.63;100200.19;5074568;28;20059;-84
2022/08/03 10:34:24;;;;;;;2.70;1.00;;;;;;;28.28;44.66;100198.94;5074439;28;20056;-83
2022/08/03 10:36:55;;;;;;;3.30;1.15;;;;;;;28.41;44.45;100191.28;5074600;28;20040;-82
2022/08/03 10:39:21;;;;;;;3.13;0.90;;;;;;;28.48;44.87;100189.44;5074629;28;20115;-83
2022/08/03 10:41:48;;;;;;;3.03;0.90;;;;;;;28.52;44.02;100192.88;5074514;28;20040;-83
2022/08/03 10:44:20;;;;;;;2.92;0.93;;;;;;;28.53;44.09;100186.03;5074563;28;20032;-83
2022/08/03 10:46:50;;;;;;;3.05;0.98;;;;;;;28.57;44.56;100179.09;5113994;22;20331;-88
2022/08/03 10:49:17;;;;;;;1.27;0.63;;;;;;;28.43;43.87;100174.00;5184090;22;20095;-82
2022/08/03 10:51:44;;;;;;;3.33;1.10;;;;;;;28.38;42.62;100182.97;5080199;28;20444;-84
2022/08/03 10:57:44;;;;;;;3.83;1.13;;;;;;;28.42;42.44;100176.03;5082937;28;20038;-89
2022/08/03 11:00:11;;;;;;;2.60;1.00;;;;;;;28.54;42.73;100185.59;5086371;28;20044;-89
2022/08/03 11:03:03;;;;;;;3.60;1.17;;;;;;;28.63;42.72;100176.47;5073201;28;20050;-90
2022/08/03 11:05:30;;;;;;;3.00;0.77;;;;;;;28.70;42.15;100173.41;5088621;28;20039;-90
2022/08/03 11:08:19;;;;;;;2.80;0.95;;;;;;;28.70;42.05;100162.19;5095156;28;20035;-90
2022/08/03 11:10:45;;;;;;;3.17;1.23;;;;;;;28.70;41.57;100173.41;5090986;28;20020;-90
2022/08/03 11:13:15;;;;;;;2.80;0.88;;;;;;;28.71;42.01;100169.34;5095466;28;20035;-90
2022/08/03 11:18:17;;;;;;;3.73;0.80;;;;;;;28.82;40.97;100161.34;5075383;22;20071;-90
2022/08/03 11:20:57;;;;;;;3.13;0.90;;;;;;;28.92;40.83;100160.19;5074015;28;20354;-91
2022/08/03 11:23:45;;;;;;;1.95;0.80;;;;;;;28.91;41.83;100160.66;5073831;28;20354;-89
2022/08/03 11:26:15;;;;;;;2.17;0.90;;;;;;;28.99;42.25;100165.50;5071566;28;20461;-90
2022/08/03 11:28:43;;;;;;;4.35;1.42;;;;;;;29.03;42.13;100152.13;5067275;28;20468;-87
2022/08/03 11:31:21;;;;;;;3.23;1.20;;;;;;;29.15;42.27;100164.50;5531930;22;20047;-87
2022/08/03 11:34:09;;;;;;;4.25;1.67;;;;;;;29.11;42.27;100155.44;5205575;22;20045;-89
2022/08/03 11:41:37;;;;;;;2.65;1.48;;;;;;;29.36;39.98;100155.22;5048722;28;20300;-88
2022/08/03 11:44:03;;;;;;;2.13;0.80;;;;;;;29.30;40.23;100154.25;5096368;22;20120;-89
2022/08/03 11:49:06;;;;;;;4.47;0.98;;;;;;;29.46;40.30;100156.06;5008174;28;20102;-88
2022/08/03 11:51:31;;;;;;;4.03;1.02;;;;;;;29.38;40.33;100151.94;5009627;28;20061;-91
2022/08/03 11:54:03;;;;;;;3.05;1.05;;;;;;;29.54;40.24;100148.91;5011443;28;20081;-91